CheckWX is a tool to help pilots better visualize weather data.  It is not intended as a substitute for an official pre-flight weather briefing.

02:52:46 UTC

ESSD METAR
Borlange Airport
Sweden
Current

33 mins ago

ESSD 240220Z AUTO 26015KT 9999 NCD 02/M05 Q1013
Observed
Mar-24 @ 02:20 UTC
Wind
  • 260° at 15 KTS
Visibility
10,000+ meters
Flight Rules
VFR
Cloud Levels
  • Clear skies
Temperature
C / 36°F
Dewpoint
-5°C / 23°F
Humidity
60%
Altimeter
29.91" Hg
Pressure
1012.92 hPa
Previous

1 hour ago

ESSD 240150Z AUTO 25014KT 9999 NCD 02/M05 Q1013
Observed
Mar-24 @ 01:50 UTC
Wind
  • 250° at 14 KTS
Visibility
10,000+ meters
Flight Rules
VFR
Cloud Levels
  • Clear skies
Temperature
C / 36°F
Dewpoint
-5°C / 23°F
Humidity
60%
Altimeter
29.91" Hg
Pressure
1012.92 hPa
Previous

2 hours ago

ESSD 240120Z AUTO 25015KT 9999 NCD 02/M05 Q1012
Observed
Mar-24 @ 01:20 UTC
Wind
  • 250° at 15 KTS
Visibility
10,000+ meters
Flight Rules
VFR
Cloud Levels
  • Clear skies
Temperature
C / 36°F
Dewpoint
-5°C / 23°F
Humidity
60%
Altimeter
29.88" Hg
Pressure
1011.92 hPa